Calamocha, Spain

5:28 PM CEST on May 24, 2015 (GMT +0200)
Calamocha | | Change Station
CLOSE
Current Station
Airport
Location: Calamocha,
Elevation: 2917 ft
Nearby Weather Stations

Elev 2917 ft 40.93 °N, 1.29 °W | Updated 28 minutes ago

Partly Cloudy
Partly Cloudy
70 °F
Feels Like 70 °F
N
7
Wind Variable Wind from ESE

Today
High -- | Low -- °F
--% Chance of Precip.
Yesterday
High -- | Low -- °F
Precip. -- in
6:40 AM 9:24 PM
Waxing Crescent, 40% visible
Pressure 30.04 in
Visibility 6.2 miles
Clouds Few 5000 ft
Dew Point 45 °F
Humidity 40%
Rainfall 0.00 in
Snow Depth Not available.
UV 8 out of 12
Pollen Not available.
Air Quality Not available.
Flu Activity Not available.
METAR LECH 241500Z 12006KT 070V170 9999 FEW050 21/07 Q1017

More Conditions Fewer Conditions

Pressure 30.04 in
Visibility 6.2 miles
Clouds Few 5000 ft
Dew Point 45 °F
Humidity 40%
Rainfall 0.00 in
Snow Depth Not available.
UV 8 out of 12
Pollen Not available.
Air Quality Not available.
Flu Activity Not available.
METAR LECH 241500Z 12006KT 070V170 9999 FEW050 21/07 Q1017

More Conditions Fewer Conditions

10-Day Weather Forecast

Almanac

Astronomy

May. 24, 2015 Rise Set
Actual Time
Civil Twilight
Nautical Twilight
Astronomical Twilight
Moon
Length of Visible Light
Length of Day
Tomorrow will be .
, % of the Moon is Illuminated

Today's Extremes

Country Highs Country Lows

Community

WunderPhotos

Upload Photos

1,823,765 photos uploaded!

WunderBlogs® & News

Nearby

Air Quality

  Air Quality AQ Index Pollutant
Not available.

Snow Depth

Station Depth Elevation

Earthquake Activity

City Distance Mag. Time & Date
Minimum magnitude displayed is 2.5.

Coastal Water Temperatures

Place Temperature

Stations

Nearby Weather Stations

Station Location Temp. Windchill Dew Point Humidity Wind Precip. Elev Updated Type